sensor_id;sensor_type;location;lat;lon;timestamp;pressure;altitude;pressure_sealevel;temperature;humidity
36258;BME280;22294;52.044;4.582;2022-10-16T00:00:29;75764.72;;;-144.37;75.48
36258;BME280;22294;52.044;4.582;2022-10-16T00:02:55;75762.66;;;-144.37;75.96
36258;BME280;22294;52.044;4.582;2022-10-16T00:05:20;75764.72;;;-144.37;76.10
36258;BME280;22294;52.044;4.582;2022-10-16T00:07:46;75766.75;;;-144.37;76.02
36258;BME280;22294;52.044;4.582;2022-10-16T00:10:11;75764.72;;;-144.37;76.08
36258;BME280;22294;52.044;4.582;2022-10-16T00:12:36;75764.72;;;-144.37;76.09
36258;BME280;22294;52.044;4.582;2022-10-16T00:15:02;75758.59;;;-144.37;75.59
36258;BME280;22294;52.044;4.582;2022-10-16T00:17:27;75762.66;;;-144.37;75.67
36258;BME280;22294;52.044;4.582;2022-10-16T00:19:52;75758.59;;;-144.37;75.84
36258;BME280;22294;52.044;4.582;2022-10-16T00:22:18;75758.59;;;-144.37;75.59
36258;BME280;22294;52.044;4.582;2022-10-16T00:24:43;75768.81;;;-144.37;75.36
36258;BME280;22294;52.044;4.582;2022-10-16T00:27:08;75762.66;;;-144.37;75.82
36258;BME280;22294;52.044;4.582;2022-10-16T00:29:33;75756.53;;;-144.37;75.77
36258;BME280;22294;52.044;4.582;2022-10-16T00:31:59;75754.50;;;-144.37;75.93
36258;BME280;22294;52.044;4.582;2022-10-16T00:34:24;75754.50;;;-144.37;75.24
36258;BME280;22294;52.044;4.582;2022-10-16T00:36:49;75748.34;;;-144.37;75.21
36258;BME280;22294;52.044;4.582;2022-10-16T00:39:14;75748.34;;;-144.37;74.95
36258;BME280;22294;52.044;4.582;2022-10-16T00:41:40;75736.09;;;-144.37;74.62
36258;BME280;22294;52.044;4.582;2022-10-16T00:44:44;75742.22;;;-144.37;75.21
36258;BME280;22294;52.044;4.582;2022-10-16T00:47:21;75729.94;;;-144.37;75.19
36258;BME280;22294;52.044;4.582;2022-10-16T00:49:50;75727.91;;;-144.37;75.42
36258;BME280;22294;52.044;4.582;2022-10-16T00:52:17;75738.13;;;-144.37;75.89
36258;BME280;22294;52.044;4.582;2022-10-16T00:54:42;75736.09;;;-144.37;76.03
36258;BME280;22294;52.044;4.582;2022-10-16T00:57:08;75742.22;;;-144.37;76.03
36258;BME280;22294;52.044;4.582;2022-10-16T00:59:38;75742.22;;;-144.37;76.90
36258;BME280;22294;52.044;4.582;2022-10-16T01:02:05;75742.22;;;-144.37;77.14
36258;BME280;22294;52.044;4.582;2022-10-16T01:04:35;75744.25;;;-144.37;77.66
36258;BME280;22294;52.044;4.582;2022-10-16T01:09:37;75738.13;;;-144.37;78.33
36258;BME280;22294;52.044;4.582;2022-10-16T01:12:23;75744.25;;;-144.37;78.87
36258;BME280;22294;52.044;4.582;2022-10-16T01:15:10;75756.53;;;-144.37;79.75
36258;BME280;22294;52.044;4.582;2022-10-16T01:17:43;75766.75;;;-144.37;80.27
36258;BME280;22294;52.044;4.582;2022-10-16T01:20:29;75764.72;;;-144.37;80.70
36258;BME280;22294;52.044;4.582;2022-10-16T01:23:28;75770.84;;;-144.37;81.76
36258;BME280;22294;52.044;4.582;2022-10-16T01:26:04;75793.34;;;-144.37;82.72
36258;BME280;22294;52.044;4.582;2022-10-16T01:28:51;75791.31;;;-144.37;83.27
36258;BME280;22294;52.044;4.582;2022-10-16T01:31:19;75801.53;;;-144.37;83.70
36258;BME280;22294;52.044;4.582;2022-10-16T01:33:51;75801.53;;;-144.37;84.29
36258;BME280;22294;52.044;4.582;2022-10-16T01:36:24;75811.75;;;-144.37;84.63
36258;BME280;22294;52.044;4.582;2022-10-16T01:38:52;75815.84;;;-144.37;84.63
36258;BME280;22294;52.044;4.582;2022-10-16T01:41:32;75824.03;;;-144.37;85.28
36258;BME280;22294;52.044;4.582;2022-10-16T01:44:05;75836.28;;;-144.37;85.52
36258;BME280;22294;52.044;4.582;2022-10-16T01:46:34;75850.59;;;-144.37;86.01
36258;BME280;22294;52.044;4.582;2022-10-16T01:49:02;75852.66;;;-144.37;86.16
36258;BME280;22294;52.044;4.582;2022-10-16T01:51:29;75850.59;;;-144.37;86.42
36258;BME280;22294;52.044;4.582;2022-10-16T01:53:57;75854.69;;;-144.37;86.66
36258;BME280;22294;52.044;4.582;2022-10-16T01:56:25;75858.78;;;-144.37;86.68
36258;BME280;22294;52.044;4.582;2022-10-16T01:59:12;75854.69;;;-144.37;86.86
36258;BME280;22294;52.044;4.582;2022-10-16T02:01:42;75858.78;;;-144.37;86.34
36258;BME280;22294;52.044;4.582;2022-10-16T02:04:18;75854.69;;;-144.37;86.53
36258;BME280;22294;52.044;4.582;2022-10-16T02:06:46;75852.66;;;-144.37;86.63
36258;BME280;22294;52.044;4.582;2022-10-16T02:09:12;75860.81;;;-144.37;86.82
36258;BME280;22294;52.044;4.582;2022-10-16T02:11:37;75864.91;;;-144.37;87.21
36258;BME280;22294;52.044;4.582;2022-10-16T02:14:05;75869.00;;;-144.37;87.92
36258;BME280;22294;52.044;4.582;2022-10-16T02:16:37;75866.97;;;-144.37;87.83
36258;BME280;22294;52.044;4.582;2022-10-16T02:19:05;75869.00;;;-144.37;87.87
36258;BME280;22294;52.044;4.582;2022-10-16T02:21:44;75864.91;;;-144.37;87.99
36258;BME280;22294;52.044;4.582;2022-10-16T02:26:48;75860.81;;;-144.37;88.02
36258;BME280;22294;52.044;4.582;2022-10-16T02:29:17;75860.81;;;-144.37;88.43
36258;BME280;22294;52.044;4.582;2022-10-16T02:31:47;75862.88;;;-144.37;88.25
36258;BME280;22294;52.044;4.582;2022-10-16T02:34:15;75866.97;;;-144.37;88.38
36258;BME280;22294;52.044;4.582;2022-10-16T02:36:42;75860.81;;;-144.37;88.28
36258;BME280;22294;52.044;4.582;2022-10-16T02:39:10;75869.00;;;-144.37;88.32
36258;BME280;22294;52.044;4.582;2022-10-16T02:41:35;75864.91;;;-144.37;88.29
36258;BME280;22294;52.044;4.582;2022-10-16T02:44:01;75869.00;;;-144.37;88.33
36258;BME280;22294;52.044;4.582;2022-10-16T02:46:26;75873.09;;;-144.37;88.58
36258;BME280;22294;52.044;4.582;2022-10-16T02:48:51;75871.06;;;-144.37;88.61
36258;BME280;22294;52.044;4.582;2022-10-16T02:51:17;75873.09;;;-144.37;88.84
36258;BME280;22294;52.044;4.582;2022-10-16T02:53:42;75869.00;;;-144.37;88.61
36258;BME280;22294;52.044;4.582;2022-10-16T02:56:07;75885.38;;;-144.37;89.13
36258;BME280;22294;52.044;4.582;2022-10-16T02:58:32;75877.19;;;-144.37;88.99
36258;BME280;22294;52.044;4.582;2022-10-16T03:00:58;75877.19;;;-144.37;89.12
36258;BME280;22294;52.044;4.582;2022-10-16T03:03:23;75891.50;;;-144.37;89.16
36258;BME280;22294;52.044;4.582;2022-10-16T03:05:48;75883.31;;;-144.37;89.06
36258;BME280;22294;52.044;4.582;2022-10-16T03:08:14;75887.41;;;-144.37;88.92
36258;BME280;22294;52.044;4.582;2022-10-16T03:10:39;75887.41;;;-144.37;88.83
36258;BME280;22294;52.044;4.582;2022-10-16T03:13:05;75891.50;;;-144.37;89.07
36258;BME280;22294;52.044;4.582;2022-10-16T03:15:30;75889.47;;;-144.37;89.17
36258;BME280;22294;52.044;4.582;2022-10-16T03:17:58;75893.56;;;-144.37;89.27
36258;BME280;22294;52.044;4.582;2022-10-16T03:20:24;75901.72;;;-144.37;89.34
36258;BME280;22294;52.044;4.582;2022-10-16T03:22:50;75901.72;;;-144.37;89.45
36258;BME280;22294;52.044;4.582;2022-10-16T03:25:15;75901.72;;;-144.37;89.86
36258;BME280;22294;52.044;4.582;2022-10-16T03:27:40;75903.78;;;-144.37;89.74
36258;BME280;22294;52.044;4.582;2022-10-16T03:30:06;75905.81;;;-144.37;89.83
36258;BME280;22294;52.044;4.582;2022-10-16T03:32:32;75909.91;;;-144.37;90.18
36258;BME280;22294;52.044;4.582;2022-10-16T03:34:58;75916.03;;;-144.37;90.18
36258;BME280;22294;52.044;4.582;2022-10-16T03:37:23;75907.88;;;-144.37;90.18
36258;BME280;22294;52.044;4.582;2022-10-16T03:39:49;75903.78;;;-144.37;90.19
36258;BME280;22294;52.044;4.582;2022-10-16T03:42:14;75903.78;;;-144.37;90.25
36258;BME280;22294;52.044;4.582;2022-10-16T03:44:39;75905.81;;;-144.37;89.77
36258;BME280;22294;52.044;4.582;2022-10-16T03:47:04;75899.69;;;-144.37;89.68
36258;BME280;22294;52.044;4.582;2022-10-16T03:49:30;75903.78;;;-144.37;89.74
36258;BME280;22294;52.044;4.582;2022-10-16T03:51:55;75905.81;;;-144.37;89.69
36258;BME280;22294;52.044;4.582;2022-10-16T03:54:20;75905.81;;;-144.37;89.84
36258;BME280;22294;52.044;4.582;2022-10-16T03:56:47;75909.91;;;-144.37;89.71
36258;BME280;22294;52.044;4.582;2022-10-16T03:59:12;75905.81;;;-144.37;89.54
36258;BME280;22294;52.044;4.582;2022-10-16T04:01:38;75911.94;;;-144.37;89.70
36258;BME280;22294;52.044;4.582;2022-10-16T04:04:03;75909.91;;;-144.37;89.62
36258;BME280;22294;52.044;4.582;2022-10-16T04:06:28;75914.00;;;-144.37;89.56
36258;BME280;22294;52.044;4.582;2022-10-16T04:08:53;75922.19;;;-144.37;89.87
36258;BME280;22294;52.044;4.582;2022-10-16T04:11:19;75926.28;;;-144.37;90.11
36258;BME280;22294;52.044;4.582;2022-10-16T04:13:44;75936.50;;;-144.37;90.34
36258;BME280;22294;52.044;4.582;2022-10-16T04:16:09;75936.50;;;-144.37;90.66
36258;BME280;22294;52.044;4.582;2022-10-16T04:18:34;75940.59;;;-144.37;91.05
36258;BME280;22294;52.044;4.582;2022-10-16T04:21:04;75932.41;;;-144.37;91.24
36258;BME280;22294;52.044;4.582;2022-10-16T04:23:30;75938.53;;;-144.37;91.43
36258;BME280;22294;52.044;4.582;2022-10-16T04:25:55;75934.44;;;-144.37;91.49
36258;BME280;22294;52.044;4.582;2022-10-16T04:28:21;75938.53;;;-144.37;91.54
36258;BME280;22294;52.044;4.582;2022-10-16T04:30:46;75946.72;;;-144.37;92.06
36258;BME280;22294;52.044;4.582;2022-10-16T04:33:11;75946.72;;;-144.37;92.14
36258;BME280;22294;52.044;4.582;2022-10-16T04:35:37;75954.91;;;-144.37;92.21
36258;BME280;22294;52.044;4.582;2022-10-16T04:38:03;75950.81;;;-144.37;92.08
36258;BME280;22294;52.044;4.582;2022-10-16T04:40:28;75950.81;;;-144.37;91.95
36258;BME280;22294;52.044;4.582;2022-10-16T04:42:54;75961.03;;;-144.37;92.25
36258;BME280;22294;52.044;4.582;2022-10-16T04:45:19;75967.16;;;-144.37;92.52
36258;BME280;22294;52.044;4.582;2022-10-16T04:47:44;75973.31;;;-144.37;92.79
36258;BME280;22294;52.044;4.582;2022-10-16T04:50:10;75969.22;;;-144.37;92.79
36258;BME280;22294;52.044;4.582;2022-10-16T04:52:35;75975.34;;;-144.37;92.62
36258;BME280;22294;52.044;4.582;2022-10-16T04:55:01;75973.31;;;-144.37;92.67
36258;BME280;22294;52.044;4.582;2022-10-16T04:57:28;75981.50;;;-144.37;93.02
36258;BME280;22294;52.044;4.582;2022-10-16T04:59:55;75989.66;;;-144.37;93.38
36258;BME280;22294;52.044;4.582;2022-10-16T05:02:21;75991.72;;;-144.37;93.31
36258;BME280;22294;52.044;4.582;2022-10-16T05:04:46;75995.81;;;-144.37;93.41
36258;BME280;22294;52.044;4.582;2022-10-16T05:07:11;75999.91;;;-144.37;93.80
36258;BME280;22294;52.044;4.582;2022-10-16T05:09:36;75999.91;;;-144.37;94.12
36258;BME280;22294;52.044;4.582;2022-10-16T05:12:02;75989.66;;;-144.37;94.38
36258;BME280;22294;52.044;4.582;2022-10-16T05:14:28;75989.66;;;-144.37;94.30
36258;BME280;22294;52.044;4.582;2022-10-16T05:16:53;75995.81;;;-144.37;94.61
36258;BME280;22294;52.044;4.582;2022-10-16T05:19:19;75999.91;;;-144.37;94.79
36258;BME280;22294;52.044;4.582;2022-10-16T05:21:44;75995.81;;;-144.37;95.33
36258;BME280;22294;52.044;4.582;2022-10-16T05:24:09;75997.84;;;-144.37;96.15
36258;BME280;22294;52.044;4.582;2022-10-16T05:26:35;76003.97;;;-144.37;96.67
36258;BME280;22294;52.044;4.582;2022-10-16T05:29:00;76006.03;;;-144.37;97.16
36258;BME280;22294;52.044;4.582;2022-10-16T05:31:26;76012.16;;;-144.37;97.88
36258;BME280;22294;52.044;4.582;2022-10-16T05:33:51;76012.16;;;-144.37;97.91
36258;BME280;22294;52.044;4.582;2022-10-16T05:36:16;76014.22;;;-144.37;98.47
36258;BME280;22294;52.044;4.582;2022-10-16T05:38:43;76010.13;;;-144.37;98.88
36258;BME280;22294;52.044;4.582;2022-10-16T05:41:09;76024.44;;;-144.37;100.00
36258;BME280;22294;52.044;4.582;2022-10-16T05:43:34;76024.44;;;-144.37;100.00
36258;BME280;22294;52.044;4.582;2022-10-16T05:46:02;76030.56;;;-144.37;100.00
36258;BME280;22294;52.044;4.582;2022-10-16T05:48:28;76032.63;;;-144.37;100.00
36258;BME280;22294;52.044;4.582;2022-10-16T05:51:03;76036.69;;;-144.37;100.00
36258;BME280;22294;52.044;4.582;2022-10-16T05:53:31;76034.66;;;-144.37;100.00
36258;BME280;22294;52.044;4.582;2022-10-16T05:55:56;76040.78;;;-144.37;100.00
36258;BME280;22294;52.044;4.582;2022-10-16T05:58:22;76040.78;;;-144.37;100.00
36258;BME280;22294;52.044;4.582;2022-10-16T06:00:55;76038.75;;;-144.37;100.00
36258;BME280;22294;52.044;4.582;2022-10-16T06:03:21;76053.06;;;-144.37;100.00
36258;BME280;22294;52.044;4.582;2022-10-16T06:05:46;76051.03;;;-144.37;100.00
36258;BME280;22294;52.044;4.582;2022-10-16T06:08:12;76044.88;;;-144.37;100.00
36258;BME280;22294;52.044;4.582;2022-10-16T06:10:37;76046.94;;;-144.37;100.00
36258;BME280;22294;52.044;4.582;2022-10-16T06:13:02;76048.97;;;-144.37;100.00
36258;BME280;22294;52.044;4.582;2022-10-16T06:15:27;76051.03;;;-144.37;100.00
36258;BME280;22294;52.044;4.582;2022-10-16T06:17:53;76051.03;;;-144.37;100.00
36258;BME280;22294;52.044;4.582;2022-10-16T06:20:18;76053.06;;;-144.37;100.00
36258;BME280;22294;52.044;4.582;2022-10-16T06:22:43;76057.16;;;-144.37;100.00
36258;BME280;22294;52.044;4.582;2022-10-16T06:25:08;76063.28;;;-144.37;100.00
36258;BME280;22294;52.044;4.582;2022-10-16T06:27:34;76061.25;;;-144.37;100.00
36258;BME280;22294;52.044;4.582;2022-10-16T06:29:59;76059.19;;;-144.37;99.75
36258;BME280;22294;52.044;4.582;2022-10-16T06:32:24;76065.34;;;-144.37;99.19
36258;BME280;22294;52.044;4.582;2022-10-16T06:34:50;76057.16;;;-144.37;98.51
36258;BME280;22294;52.044;4.582;2022-10-16T06:37:15;76059.19;;;-144.37;97.89
36258;BME280;22294;52.044;4.582;2022-10-16T06:39:40;76055.09;;;-144.37;97.35
36258;BME280;22294;52.044;4.582;2022-10-16T06:42:05;76063.28;;;-144.37;96.48
36258;BME280;22294;52.044;4.582;2022-10-16T06:44:31;76069.44;;;-144.37;95.75
36258;BME280;22294;52.044;4.582;2022-10-16T06:46:56;76071.47;;;-144.37;94.74
36258;BME280;22294;52.044;4.582;2022-10-16T06:49:21;76073.50;;;-144.37;94.69
36258;BME280;22294;52.044;4.582;2022-10-16T06:51:48;76079.66;;;-144.37;93.79
36258;BME280;22294;52.044;4.582;2022-10-16T06:54:14;76079.66;;;-144.37;93.12
36258;BME280;22294;52.044;4.582;2022-10-16T06:56:40;76081.69;;;-144.37;93.05
36258;BME280;22294;52.044;4.582;2022-10-16T06:59:05;76075.56;;;-144.37;93.24
36258;BME280;22294;52.044;4.582;2022-10-16T07:01:31;76081.69;;;-144.37;93.52
36258;BME280;22294;52.044;4.582;2022-10-16T07:03:57;76083.75;;;-144.37;93.65
36258;BME280;22294;52.044;4.582;2022-10-16T07:06:24;76087.84;;;-144.37;94.20
36258;BME280;22294;52.044;4.582;2022-10-16T07:08:50;76096.00;;;-144.37;94.32
36258;BME280;22294;52.044;4.582;2022-10-16T07:11:19;76098.06;;;-144.37;94.46
36258;BME280;22294;52.044;4.582;2022-10-16T07:13:45;76104.19;;;-144.37;95.05
36258;BME280;22294;52.044;4.582;2022-10-16T07:18:38;76114.41;;;-144.37;95.86
36258;BME280;22294;52.044;4.582;2022-10-16T07:21:06;76114.41;;;-144.37;95.77
36258;BME280;22294;52.044;4.582;2022-10-16T07:23:32;76126.69;;;-144.37;95.88
36258;BME280;22294;52.044;4.582;2022-10-16T07:25:58;76116.47;;;-144.37;96.06
36258;BME280;22294;52.044;4.582;2022-10-16T07:28:23;76116.47;;;-144.37;96.01
36258;BME280;22294;52.044;4.582;2022-10-16T07:30:48;76124.66;;;-144.37;95.90
36258;BME280;22294;52.044;4.582;2022-10-16T07:33:14;76116.47;;;-144.37;95.78
36258;BME280;22294;52.044;4.582;2022-10-16T07:35:53;76116.47;;;-144.37;95.53
36258;BME280;22294;52.044;4.582;2022-10-16T07:38:19;76112.38;;;-144.37;95.74
36258;BME280;22294;52.044;4.582;2022-10-16T07:40:45;76112.38;;;-144.37;95.86
36258;BME280;22294;52.044;4.582;2022-10-16T07:43:10;76110.31;;;-144.37;95.75
36258;BME280;22294;52.044;4.582;2022-10-16T07:45:36;76100.09;;;-144.37;95.99
36258;BME280;22294;52.044;4.582;2022-10-16T07:48:02;76093.97;;;-144.37;95.33
36258;BME280;22294;52.044;4.582;2022-10-16T07:50:27;76087.84;;;-144.37;95.68
36258;BME280;22294;52.044;4.582;2022-10-16T07:52:52;76096.00;;;-144.37;94.94
36258;BME280;22294;52.044;4.582;2022-10-16T07:55:18;76093.97;;;-144.37;94.90
36258;BME280;22294;52.044;4.582;2022-10-16T07:57:43;76089.88;;;-144.37;95.23
36258;BME280;22294;52.044;4.582;2022-10-16T08:00:09;76089.88;;;-144.37;94.54
36258;BME280;22294;52.044;4.582;2022-10-16T08:02:41;76091.91;;;-144.37;93.88
36258;BME280;22294;52.044;4.582;2022-10-16T08:05:07;76091.91;;;-144.37;93.88
36258;BME280;22294;52.044;4.582;2022-10-16T08:07:32;76089.88;;;-144.37;93.46
36258;BME280;22294;52.044;4.582;2022-10-16T08:09:59;76091.91;;;-144.37;92.94
36258;BME280;22294;52.044;4.582;2022-10-16T08:12:25;76100.09;;;-144.37;93.02
36258;BME280;22294;52.044;4.582;2022-10-16T08:14:51;76091.91;;;-144.37;93.14
36258;BME280;22294;52.044;4.582;2022-10-16T08:17:16;76098.06;;;-144.37;93.24
36258;BME280;22294;52.044;4.582;2022-10-16T08:19:48;76085.78;;;-144.37;92.72
36258;BME280;22294;52.044;4.582;2022-10-16T08:22:14;76079.66;;;-144.37;92.21
36258;BME280;22294;52.044;4.582;2022-10-16T08:24:39;76075.56;;;-144.37;91.31
36258;BME280;22294;52.044;4.582;2022-10-16T08:27:05;76071.47;;;-144.37;91.17
36258;BME280;22294;52.044;4.582;2022-10-16T08:29:30;76063.28;;;-144.37;91.31
36258;BME280;22294;52.044;4.582;2022-10-16T08:31:56;76063.28;;;-144.37;90.70
36258;BME280;22294;52.044;4.582;2022-10-16T08:34:21;76063.28;;;-144.37;90.24
36258;BME280;22294;52.044;4.582;2022-10-16T08:36:46;76065.34;;;-144.37;89.76
36258;BME280;22294;52.044;4.582;2022-10-16T08:39:11;76059.19;;;-144.37;89.12
36258;BME280;22294;52.044;4.582;2022-10-16T08:46:47;76063.28;;;-144.37;88.49
36258;BME280;22294;52.044;4.582;2022-10-16T08:49:16;76061.25;;;-144.37;88.29
36258;BME280;22294;52.044;4.582;2022-10-16T08:51:42;76061.25;;;-144.37;88.14
36258;BME280;22294;52.044;4.582;2022-10-16T08:54:21;76040.78;;;-144.37;87.33
36258;BME280;22294;52.044;4.582;2022-10-16T08:56:47;76048.97;;;-144.37;86.75
36258;BME280;22294;52.044;4.582;2022-10-16T08:59:14;76046.94;;;-144.37;86.57
36258;BME280;22294;52.044;4.582;2022-10-16T09:01:44;76051.03;;;-144.37;87.04
36258;BME280;22294;52.044;4.582;2022-10-16T09:04:44;76051.03;;;-144.37;86.07
36258;BME280;22294;52.044;4.582;2022-10-16T09:07:44;76042.84;;;-144.37;85.49
36258;BME280;22294;52.044;4.582;2022-10-16T09:15:39;76022.38;;;-144.37;85.71
36258;BME280;22294;52.044;4.582;2022-10-16T09:18:23;76016.25;;;-144.37;84.84
36258;BME280;22294;52.044;4.582;2022-10-16T09:23:35;76006.03;;;-144.37;85.35
36258;BME280;22294;52.044;4.582;2022-10-16T09:26:02;75997.84;;;-144.37;84.41
36258;BME280;22294;52.044;4.582;2022-10-16T09:28:28;75991.72;;;-144.37;84.39
36258;BME280;22294;52.044;4.582;2022-10-16T09:30:53;75997.84;;;-144.37;83.28
36258;BME280;22294;52.044;4.582;2022-10-16T09:33:24;76001.94;;;-144.37;82.83
36258;BME280;22294;52.044;4.582;2022-10-16T09:35:53;76006.03;;;-144.37;82.51
36258;BME280;22294;52.044;4.582;2022-10-16T09:38:30;75989.66;;;-144.37;81.83
36258;BME280;22294;52.044;4.582;2022-10-16T09:40:58;75991.72;;;-144.37;80.58
36258;BME280;22294;52.044;4.582;2022-10-16T09:43:40;75991.72;;;-144.37;79.88
36258;BME280;22294;52.044;4.582;2022-10-16T09:46:08;75983.53;;;-144.37;78.67
36258;BME280;22294;52.044;4.582;2022-10-16T09:48:48;75975.34;;;-144.37;79.15
36258;BME280;22294;52.044;4.582;2022-10-16T09:51:31;75973.31;;;-144.37;77.92
36258;BME280;22294;52.044;4.582;2022-10-16T09:53:59;75963.09;;;-144.37;78.24
36258;BME280;22294;52.044;4.582;2022-10-16T09:56:33;75950.81;;;-144.37;78.14
36258;BME280;22294;52.044;4.582;2022-10-16T10:01:39;75950.81;;;-144.37;78.39
36258;BME280;22294;52.044;4.582;2022-10-16T10:04:05;75942.63;;;-144.37;77.77
36258;BME280;22294;52.044;4.582;2022-10-16T10:06:34;75926.28;;;-144.37;77.32
36258;BME280;22294;52.044;4.582;2022-10-16T10:09:22;75914.00;;;-144.37;75.61
36258;BME280;22294;52.044;4.582;2022-10-16T10:11:54;75907.88;;;-144.37;74.70
36258;BME280;22294;52.044;4.582;2022-10-16T10:14:37;75895.59;;;-144.37;75.12
36258;BME280;22294;52.044;4.582;2022-10-16T10:20:01;75864.91;;;-144.37;73.96
36258;BME280;22294;52.044;4.582;2022-10-16T10:22:44;75883.31;;;-144.37;72.49
36258;BME280;22294;52.044;4.582;2022-10-16T10:35:42;75891.50;;;-144.37;68.92
36258;BME280;22294;52.044;4.582;2022-10-16T10:41:27;75879.22;;;-144.37;69.40
36258;BME280;22294;52.044;4.582;2022-10-16T10:49:25;75877.19;;;-144.37;67.98
36258;BME280;22294;52.044;4.582;2022-10-16T10:52:13;75871.06;;;-144.37;67.90
36258;BME280;22294;52.044;4.582;2022-10-16T10:58:24;75879.22;;;-144.37;68.02
36258;BME280;22294;52.044;4.582;2022-10-16T11:01:04;75862.88;;;-144.37;67.31
36258;BME280;22294;52.044;4.582;2022-10-16T11:06:19;75875.16;;;-144.37;67.63
36258;BME280;22294;52.044;4.582;2022-10-16T11:11:49;75883.31;;;-144.37;66.73
36258;BME280;22294;52.044;4.582;2022-10-16T11:14:24;75877.19;;;-144.37;65.95
36258;BME280;22294;52.044;4.582;2022-10-16T11:17:19;75864.91;;;-144.37;66.37
36258;BME280;22294;52.044;4.582;2022-10-16T11:20:37;75854.69;;;-144.37;65.71
36258;BME280;22294;52.044;4.582;2022-10-16T11:22:45;75846.50;;;-144.37;66.43
36258;BME280;22294;52.044;4.582;2022-10-16T11:25:29;75848.56;;;-144.37;64.48
36258;BME280;22294;52.044;4.582;2022-10-16T11:28:09;75846.50;;;-144.37;64.38
36258;BME280;22294;52.044;4.582;2022-10-16T11:36:17;75826.06;;;-144.37;62.55
36258;BME280;22294;52.044;4.582;2022-10-16T11:39:12;75819.94;;;-144.37;61.35
36258;BME280;22294;52.044;4.582;2022-10-16T11:49:36;75858.78;;;-144.37;61.58
36258;BME280;22294;52.044;4.582;2022-10-16T11:52:20;75873.09;;;-144.37;61.53
36258;BME280;22294;52.044;4.582;2022-10-16T11:57:34;75899.69;;;-144.37;62.27
36258;BME280;22294;52.044;4.582;2022-10-16T12:00:14;75907.88;;;-144.37;62.49
36258;BME280;22294;52.044;4.582;2022-10-16T12:02:54;75907.88;;;-144.37;62.91
36258;BME280;22294;52.044;4.582;2022-10-16T12:05:52;75903.78;;;-144.37;62.36
36258;BME280;22294;52.044;4.582;2022-10-16T12:08:20;75891.50;;;-144.37;62.08
36258;BME280;22294;52.044;4.582;2022-10-16T12:10:47;75895.59;;;-144.37;60.18
36258;BME280;22294;52.044;4.582;2022-10-16T12:13:39;75893.56;;;-144.37;59.39
36258;BME280;22294;52.044;4.582;2022-10-16T12:18:36;75889.47;;;-144.37;57.08
36258;BME280;22294;52.044;4.582;2022-10-16T12:21:03;75889.47;;;-144.37;57.90
36258;BME280;22294;52.044;4.582;2022-10-16T12:23:36;75887.41;;;-144.37;57.55
36258;BME280;22294;52.044;4.582;2022-10-16T12:26:02;75883.31;;;-144.37;57.65
36258;BME280;22294;52.044;4.582;2022-10-16T12:28:30;75885.38;;;-144.37;56.90
36258;BME280;22294;52.044;4.582;2022-10-16T12:31:03;75895.59;;;-144.37;57.65
36258;BME280;22294;52.044;4.582;2022-10-16T12:33:36;75899.69;;;-144.37;57.91
36258;BME280;22294;52.044;4.582;2022-10-16T12:36:06;75914.00;;;-144.37;56.68
36258;BME280;22294;52.044;4.582;2022-10-16T12:38:47;75920.13;;;-144.37;57.29
36258;BME280;22294;52.044;4.582;2022-10-16T12:41:24;75926.28;;;-144.37;55.79
36258;BME280;22294;52.044;4.582;2022-10-16T12:43:50;75926.28;;;-144.37;56.70
36258;BME280;22294;52.044;4.582;2022-10-16T12:48:42;75918.09;;;-144.37;55.77
36258;BME280;22294;52.044;4.582;2022-10-16T12:54:02;75911.94;;;-144.37;55.84
36258;BME280;22294;52.044;4.582;2022-10-16T12:56:41;75907.88;;;-144.37;55.94
36258;BME280;22294;52.044;4.582;2022-10-16T13:11:20;75899.69;;;-144.37;57.39
36258;BME280;22294;52.044;4.582;2022-10-16T13:17:19;75907.88;;;-144.37;56.63
36258;BME280;22294;52.044;4.582;2022-10-16T13:23:36;75911.94;;;-144.37;55.94
36258;BME280;22294;52.044;4.582;2022-10-16T13:28:52;75909.91;;;-144.37;56.86
36258;BME280;22294;52.044;4.582;2022-10-16T13:31:23;75905.81;;;-144.37;58.32
36258;BME280;22294;52.044;4.582;2022-10-16T13:33:51;75903.78;;;-144.37;58.28
36258;BME280;22294;52.044;4.582;2022-10-16T13:36:26;75914.00;;;-144.37;56.92
36258;BME280;22294;52.044;4.582;2022-10-16T13:39:11;75918.09;;;-144.37;56.44
36258;BME280;22294;52.044;4.582;2022-10-16T13:41:37;75932.41;;;-144.37;56.31
36258;BME280;22294;52.044;4.582;2022-10-16T13:44:03;75928.31;;;-144.37;56.02
36258;BME280;22294;52.044;4.582;2022-10-16T13:46:30;75926.28;;;-144.37;56.12
36258;BME280;22294;52.044;4.582;2022-10-16T13:49:19;75932.41;;;-144.37;55.93
36258;BME280;22294;52.044;4.582;2022-10-16T13:52:01;75938.53;;;-144.37;53.95
36258;BME280;22294;52.044;4.582;2022-10-16T13:54:27;75936.50;;;-144.37;54.08
36258;BME280;22294;52.044;4.582;2022-10-16T13:56:55;75934.44;;;-144.37;55.27
36258;BME280;22294;52.044;4.582;2022-10-16T13:59:25;75930.38;;;-144.37;55.46
36258;BME280;22294;52.044;4.582;2022-10-16T14:01:53;75928.31;;;-144.37;55.95
36258;BME280;22294;52.044;4.582;2022-10-16T14:04:21;75932.41;;;-144.37;58.02
36258;BME280;22294;52.044;4.582;2022-10-16T14:06:49;75926.28;;;-144.37;57.56
36258;BME280;22294;52.044;4.582;2022-10-16T14:11:55;75918.09;;;-144.37;59.72
36258;BME280;22294;52.044;4.582;2022-10-16T14:14:22;75920.13;;;-144.37;59.12
36258;BME280;22294;52.044;4.582;2022-10-16T14:16:48;75920.13;;;-144.37;59.08
36258;BME280;22294;52.044;4.582;2022-10-16T14:19:27;75922.19;;;-144.37;60.00
36258;BME280;22294;52.044;4.582;2022-10-16T14:21:54;75932.41;;;-144.37;59.32
36258;BME280;22294;52.044;4.582;2022-10-16T14:26:56;75930.38;;;-144.37;60.49
36258;BME280;22294;52.044;4.582;2022-10-16T14:29:23;75936.50;;;-144.37;61.20
36258;BME280;22294;52.044;4.582;2022-10-16T14:34:33;75942.63;;;-144.37;64.05
36258;BME280;22294;52.044;4.582;2022-10-16T14:37:23;75946.72;;;-144.37;64.07
36258;BME280;22294;52.044;4.582;2022-10-16T14:39:50;75946.72;;;-144.37;63.83